Mon Ami — YT2537 — position and weather

sailwx.info

Track history (hours):
 
Tides and Currents Weather Stations Pressure Air Temp Water Temp Dewpoint Dewpoint Depression Visibility Wind Speed Wind Dir Waves Ship Positions

Mon Ami

Last reported at 2018-Jul-21 22:30 UTC. Time now 2018-Jul-21 22:37 UTC.
Position N 44°07' E 028°39'.

Length 172 m; draft 2.6 m.

Type: Cargo ship. MMSI: 279202537.

Date/timePositionNaut miles runAvg speedWind from/ knotsBaromVisibWave heightAir tempDewpointWater temp
2018-Jul-21 22:30N 44°07' E 028°39'0 0.0
2018-Jul-21 22:00N 44°07' E 028°39'0 0.0
2018-Jul-21 21:30N 44°07' E 028°39'0 0.0
2018-Jul-21 21:00N 44°07' E 028°39'0 0.0
2018-Jul-21 20:30N 44°07' E 028°39'0 0.0
2018-Jul-21 20:00N 44°07' E 028°39'0 0.0
2018-Jul-21 19:30N 44°07' E 028°39'0 0.0
2018-Jul-21 19:00N 44°07' E 028°39'0 0.0
2018-Jul-21 18:30N 44°07' E 028°39'0 0.0
2018-Jul-21 18:00N 44°07' E 028°39'0 0.0
2018-Jul-21 17:30N 44°07' E 028°39'0 0.0
2018-Jul-21 17:00N 44°07' E 028°39'0 0.0
2018-Jul-21 16:30N 44°07' E 028°39'0 0.0
2018-Jul-21 16:00N 44°07' E 028°39'0 0.0
2018-Jul-21 15:30N 44°07' E 028°39'0 0.0
2018-Jul-21 15:00N 44°07' E 028°39'0 0.0
2018-Jul-21 14:30N 44°07' E 028°39'0 0.0
2018-Jul-21 13:30N 44°07' E 028°39'0 0.0
2018-Jul-21 13:00N 44°07' E 028°39'0 0.0
2018-Jul-21 12:30N 44°07' E 028°39'0 0.0
2018-Jul-21 12:00N 44°07' E 028°39'0 0.0
2018-Jul-21 11:30N 44°07' E 028°39'0 0.0
2018-Jul-21 11:00N 44°07' E 028°39'0 0.0
2018-Jul-21 10:30N 44°07' E 028°39'0 0.0
2018-Jul-21 10:00N 44°07' E 028°39'0 0.0
2018-Jul-21 09:30N 44°07' E 028°39'0 0.0
2018-Jul-21 09:00N 44°07' E 028°39'0 0.0
2018-Jul-21 08:30N 44°07' E 028°39'0 0.0
2018-Jul-21 08:00N 44°07' E 028°39'0 0.0
2018-Jul-21 07:30N 44°07' E 028°39'0 0.0
2018-Jul-21 07:00N 44°07' E 028°39'0 0.0
2018-Jul-21 06:30N 44°07' E 028°39'0 0.0
2018-Jul-21 06:00N 44°07' E 028°39'0 0.0
2018-Jul-21 05:30N 44°07' E 028°39'0 0.0
2018-Jul-21 05:00N 44°07' E 028°39'0 0.0
2018-Jul-21 04:30N 44°07' E 028°39'0 0.0
2018-Jul-21 04:00N 44°07' E 028°39'0 0.0
2018-Jul-21 03:30N 44°07' E 028°39'0 0.0
2018-Jul-21 03:00N 44°07' E 028°39'0 0.0
2018-Jul-21 02:30N 44°07' E 028°39'0 0.0
2018-Jul-21 02:00N 44°07' E 028°39'0 0.0
2018-Jul-21 01:30N 44°07' E 028°39'0 0.0
2018-Jul-21 01:00N 44°07' E 028°39'0 0.0
2018-Jul-21 00:30N 44°07' E 028°39'0 0.0
2018-Jul-21 00:00N 44°07' E 028°39'0 0.0
2018-Jul-20 23:30N 44°07' E 028°39'0 0.0
2018-Jul-20 23:00N 44°07' E 028°39'0 0.0
2018-Jul-20 22:30N 44°07' E 028°39'0 0.0
2018-Jul-20 21:58N 44°07' E 028°39'0 0.0
2018-Jul-20 21:30N 44°07' E 028°39'0 0.0
2018-Jul-20 21:00N 44°07' E 028°39'0 0.0
2018-Jul-20 20:30N 44°07' E 028°39'0 0.0
2018-Jul-20 20:00N 44°07' E 028°39'0 0.0
2018-Jul-20 19:30N 44°07' E 028°39'0 0.0
2018-Jul-20 19:00N 44°07' E 028°39'0 0.0
2018-Jul-20 18:30N 44°07' E 028°39'0 0.0
2018-Jul-20 18:00N 44°07' E 028°39'0 0.0
2018-Jul-20 17:30N 44°07' E 028°39'0 0.0
2018-Jul-20 17:00N 44°07' E 028°39'0 0.0
2018-Jul-20 16:30N 44°07' E 028°39'0 0.0
2018-Jul-20 16:00N 44°07' E 028°39'0 0.9
2018-Jul-20 15:30N 44°07' E 028°39'1 2.7
2018-Jul-20 15:00N 44°06' E 028°38'1 1.6
2018-Jul-20 14:30N 44°06' E 028°37'1 1.0
2018-Jul-20 14:00N 44°06' E 028°36'0 0.3
2018-Jul-20 13:30N 44°06' E 028°36'0 0.0
2018-Jul-20 13:00N 44°06' E 028°36'0 0.0
2018-Jul-20 12:30N 44°06' E 028°36'0 0.0
2018-Jul-20 12:00N 44°06' E 028°36'0 0.0
2018-Jul-20 11:30N 44°06' E 028°36'0 0.5
2018-Jul-20 11:00N 44°06' E 028°36'2 4.9
2018-Jul-20 10:30N 44°06' E 028°33'6 4.2
2018-Jul-20 09:08N 44°09' E 028°26'1 5.2
2018-Jul-20 08:53N 44°10' E 028°25'2 4.9
2018-Jul-20 08:29N 44°12' E 028°23'2 4.9
2018-Jul-20 08:00N 44°14' E 028°22'3 4.6
2018-Jul-20 07:21N 44°15' E 028°18'2 5.1
2018-Jul-20 07:00N 44°15' E 028°16'2 4.9
2018-Jul-20 06:30N 44°16' E 028°12'3 4.9
2018-Jul-20 05:57N 44°16' E 028°09'2 4.9
2018-Jul-20 05:30N 44°16' E 028°06'  
2018-Jul-15 11:00N 44°31' E 022°12'3 5.4
2018-Jul-15 10:30N 44°28' E 022°10'3 5.7
2018-Jul-15 10:00N 44°29' E 022°06'3 6.1
2018-Jul-15 09:30N 44°32' E 022°04'3 5.8
2018-Jul-15 09:00N 44°35' E 022°02'15 5.7
2018-Jul-15 06:23N 44°40' E 021°42'7 5.9
2018-Jul-15 05:11N 44°45' E 021°36'1 6.4
2018-Jul-15 05:00N 44°46' E 021°34'3 6.3
2018-Jul-15 04:28N 44°46' E 021°30'11 1.4
2018-Jul-14 20:30N 44°47' E 021°14'3 6.4
2018-Jul-14 20:00N 44°45' E 021°10'3 6.2
2018-Jul-14 19:30N 44°44' E 021°06'3 6.3
2018-Jul-14 19:01N 44°43' E 021°02'3 6.2
2018-Jul-14 18:30N 44°42' E 020°58'3 5.1
2018-Jul-14 18:01N 44°40' E 020°55'0 0.1
2018-Jul-14 17:31N 44°40' E 020°55'1 2.6
2018-Jul-14 17:00N 44°41' E 020°57'1 1.4
2018-Jul-14 16:30N 44°42' E 020°57'2 4.1
2018-Jul-14 16:00N 44°40' E 020°55'1 1.9
2018-Jul-14 15:24N 44°40' E 020°54'7 2.8
2018-Jul-14 12:52N 44°41' E 020°44'3 7.7
2018-Jul-14 12:30N 44°43' E 020°41'4 7.6
2018-Jul-14 12:00N 44°46' E 020°38'4 7.4
2018-Jul-14 11:30N 44°50' E 020°39'1 2.5
2018-Jul-14 11:00N 44°51' E 020°39'0 0.0
2018-Jul-14 10:30N 44°51' E 020°39'0 0.0
2018-Jul-14 10:00N 44°51' E 020°39'0 0.0
2018-Jul-14 09:30N 44°51' E 020°39'0 0.0
2018-Jul-14 09:00N 44°51' E 020°39'0 0.0
2018-Jul-14 08:30N 44°51' E 020°39'0 0.0
2018-Jul-14 08:00N 44°51' E 020°39'0 0.0
2018-Jul-14 07:30N 44°51' E 020°39'0 0.0
2018-Jul-14 07:00N 44°51' E 020°39'0 0.0
2018-Jul-14 06:30N 44°51' E 020°39'0 0.0
2018-Jul-14 06:00N 44°51' E 020°39'0 0.0
2018-Jul-14 05:30N 44°51' E 020°39'0 0.0
2018-Jul-14 05:00N 44°51' E 020°39'0 0.0
2018-Jul-14 04:30N 44°51' E 020°39'0 0.0
2018-Jul-14 04:00N 44°51' E 020°39'0 0.0
2018-Jul-14 03:30N 44°51' E 020°39'0 0.0
2018-Jul-14 03:00N 44°51' E 020°39'0 0.0
2018-Jul-14 02:30N 44°51' E 020°39'0 0.0
2018-Jul-14 02:00N 44°51' E 020°39'0 0.0
2018-Jul-14 01:30N 44°51' E 020°39'0 0.0
2018-Jul-14 01:00N 44°51' E 020°39'0 0.0
2018-Jul-14 00:30N 44°51' E 020°39'0 0.0
2018-Jul-14 00:01N 44°51' E 020°39'0 0.0
2018-Jul-13 23:31N 44°51' E 020°39'0 0.0
2018-Jul-13 23:00N 44°51' E 020°39'0 0.0
2018-Jul-13 22:30N 44°51' E 020°39'0 0.0
2018-Jul-13 22:01N 44°51' E 020°39'0 0.0
2018-Jul-13 21:31N 44°51' E 020°39'1 2.6
2018-Jul-13 21:01N 44°49' E 020°39'3 6.5
2018-Jul-13 20:30N 44°46' E 020°38'3 6.1
2018-Jul-13 20:00N 44°44' E 020°40'3 6.5
2018-Jul-13 19:30N 44°41' E 020°43'3 6.3
2018-Jul-13 19:00N 44°40' E 020°47'3 6.4
2018-Jul-13 18:31N 44°40' E 020°51'3 5.8
2018-Jul-13 18:00N 44°40' E 020°55'0 0.2
2018-Jul-13 17:30N 44°40' E 020°55'2 3.3
2018-Jul-13 17:00N 44°41' E 020°57'0 0.1
2018-Jul-13 16:30N 44°41' E 020°57'0 0.0
2018-Jul-13 16:01N 44°41' E 020°57'0 0.0
2018-Jul-13 15:31N 44°41' E 020°57'0 0.0
2018-Jul-13 15:00N 44°41' E 020°57'0 0.0
2018-Jul-13 14:30N 44°41' E 020°57'0 0.0
2018-Jul-13 13:30N 44°41' E 020°57'0 0.0
2018-Jul-13 13:01N 44°41' E 020°57'0 0.0
2018-Jul-13 12:30N 44°41' E 020°57'0 0.0
2018-Jul-13 12:00N 44°41' E 020°57'0 0.0
2018-Jul-13 11:30N 44°41' E 020°57'0 0.0
2018-Jul-13 11:00N 44°41' E 020°57'0 0.0
2018-Jul-13 10:30N 44°41' E 020°57'0 0.0
2018-Jul-13 10:00N 44°41' E 020°57'0 0.0
2018-Jul-13 09:10N 44°41' E 020°57'0 0.0
2018-Jul-13 09:00N 44°41' E 020°57'0 0.6
2018-Jul-13 08:30N 44°42' E 020°57'0 0.4
2018-Jul-13 08:01N 44°41' E 020°57'0 0.0
2018-Jul-13 07:12N 44°41' E 020°57'0 0.0
2018-Jul-13 07:00N 44°41' E 020°57'0 0.0
2018-Jul-13 06:30N 44°41' E 020°57'0 0.0
2018-Jul-13 06:00N 44°41' E 020°57'0 0.0
2018-Jul-13 05:30N 44°41' E 020°57'0 0.0
2018-Jul-13 05:01N 44°41' E 020°57'0 0.0
2018-Jul-13 04:31N 44°41' E 020°57'0 0.0
2018-Jul-13 04:01N 44°41' E 020°57'0 0.0
2018-Jul-13 03:31N 44°41' E 020°57'0 0.0
2018-Jul-13 03:00N 44°41' E 020°57'0 0.0
2018-Jul-13 02:31N 44°41' E 020°57'0 0.0
2018-Jul-13 02:01N 44°41' E 020°57'0 0.0
2018-Jul-13 01:30N 44°41' E 020°57'0 0.0
2018-Jul-13 01:01N 44°41' E 020°57'0 0.0
2018-Jul-13 00:30N 44°41' E 020°57'0 0.0
2018-Jul-13 00:00N 44°41' E 020°57'0 0.0
2018-Jul-12 23:30N 44°41' E 020°57'0 0.0
2018-Jul-12 23:01N 44°41' E 020°57'0 0.0
2018-Jul-12 22:30N 44°41' E 020°57'0 0.0
2018-Jul-12 22:01N 44°41' E 020°57'0 0.0
2018-Jul-12 21:31N 44°41' E 020°57'0 0.0
2018-Jul-12 21:01N 44°41' E 020°57'0 0.0
2018-Jul-12 20:31N 44°41' E 020°57'0 0.0
2018-Jul-12 20:01N 44°41' E 020°57'0 0.0
2018-Jul-12 19:31N 44°41' E 020°57'0 0.0
2018-Jul-12 19:01N 44°41' E 020°57'0 0.0
2018-Jul-12 18:30N 44°41' E 020°57'0 0.0
2018-Jul-12 18:00N 44°41' E 020°57'0 0.0
2018-Jul-12 17:31N 44°41' E 020°57'0 0.0
2018-Jul-12 17:01N 44°41' E 020°57'0 0.0
2018-Jul-12 16:30N 44°41' E 020°57'0 0.0
2018-Jul-12 16:01N 44°41' E 020°57'0 0.0
2018-Jul-12 15:30N 44°41' E 020°57'0 0.0
2018-Jul-12 15:00N 44°41' E 020°57'0 0.0
2018-Jul-12 14:30N 44°41' E 020°57'0 0.0
2018-Jul-12 14:00N 44°41' E 020°57'0 0.0
2018-Jul-12 13:30N 44°41' E 020°57'0 0.0
2018-Jul-12 13:00N 44°41' E 020°57'0 0.0
2018-Jul-12 12:30N 44°41' E 020°57'0 0.0
2018-Jul-12 11:37N 44°41' E 020°57'0 0.0
2018-Jul-12 11:30N 44°41' E 020°57'0 0.0
2018-Jul-12 11:00N 44°41' E 020°57'0 0.0
2018-Jul-12 10:30N 44°41' E 020°57'0 0.0
2018-Jul-11 23:55N 44°41' E 020°57'0 0.0
2018-Jul-11 23:12N 44°41' E 020°57'0 0.0
2018-Jul-11 23:00N 44°41' E 020°57'  
Track history (hours):
 
Tides and Currents Weather Stations Pressure Air Temp Water Temp Dewpoint Dewpoint Depression Visibility Wind Speed Wind Dir Waves Ship Positions

Mon Ami

Last reported at 2018-Jul-21 22:30 UTC. Time now 2018-Jul-21 22:37 UTC.
Position N 44°07' E 028°39'.

Length 172 m; draft 2.6 m.

Type: Cargo ship. MMSI: 279202537.

Date/timePositionNaut miles runAvg speedWind from/ knotsBaromVisibWave heightAir tempDewpointWater temp
2018-Jul-21 22:30N 44°07' E 028°39'0 0.0
2018-Jul-21 22:00N 44°07' E 028°39'0 0.0
2018-Jul-21 21:30N 44°07' E 028°39'0 0.0
2018-Jul-21 21:00N 44°07' E 028°39'0 0.0
2018-Jul-21 20:30N 44°07' E 028°39'0 0.0
2018-Jul-21 20:00N 44°07' E 028°39'0 0.0
2018-Jul-21 19:30N 44°07' E 028°39'0 0.0
2018-Jul-21 19:00N 44°07' E 028°39'0 0.0
2018-Jul-21 18:30N 44°07' E 028°39'0 0.0
2018-Jul-21 18:00N 44°07' E 028°39'0 0.0
2018-Jul-21 17:30N 44°07' E 028°39'0 0.0
2018-Jul-21 17:00N 44°07' E 028°39'0 0.0
2018-Jul-21 16:30N 44°07' E 028°39'0 0.0
2018-Jul-21 16:00N 44°07' E 028°39'0 0.0
2018-Jul-21 15:30N 44°07' E 028°39'0 0.0
2018-Jul-21 15:00N 44°07' E 028°39'0 0.0
2018-Jul-21 14:30N 44°07' E 028°39'0 0.0
2018-Jul-21 13:30N 44°07' E 028°39'0 0.0
2018-Jul-21 13:00N 44°07' E 028°39'0 0.0
2018-Jul-21 12:30N 44°07' E 028°39'0 0.0
2018-Jul-21 12:00N 44°07' E 028°39'0 0.0
2018-Jul-21 11:30N 44°07' E 028°39'0 0.0
2018-Jul-21 11:00N 44°07' E 028°39'0 0.0
2018-Jul-21 10:30N 44°07' E 028°39'0 0.0
2018-Jul-21 10:00N 44°07' E 028°39'0 0.0
2018-Jul-21 09:30N 44°07' E 028°39'0 0.0
2018-Jul-21 09:00N 44°07' E 028°39'0 0.0
2018-Jul-21 08:30N 44°07' E 028°39'0 0.0
2018-Jul-21 08:00N 44°07' E 028°39'0 0.0
2018-Jul-21 07:30N 44°07' E 028°39'0 0.0
2018-Jul-21 07:00N 44°07' E 028°39'0 0.0
2018-Jul-21 06:30N 44°07' E 028°39'0 0.0
2018-Jul-21 06:00N 44°07' E 028°39'0 0.0
2018-Jul-21 05:30N 44°07' E 028°39'0 0.0
2018-Jul-21 05:00N 44°07' E 028°39'0 0.0
2018-Jul-21 04:30N 44°07' E 028°39'0 0.0
2018-Jul-21 04:00N 44°07' E 028°39'0 0.0
2018-Jul-21 03:30N 44°07' E 028°39'0 0.0
2018-Jul-21 03:00N 44°07' E 028°39'0 0.0
2018-Jul-21 02:30N 44°07' E 028°39'0 0.0
2018-Jul-21 02:00N 44°07' E 028°39'0 0.0
2018-Jul-21 01:30N 44°07' E 028°39'0 0.0
2018-Jul-21 01:00N 44°07' E 028°39'0 0.0
2018-Jul-21 00:30N 44°07' E 028°39'0 0.0
2018-Jul-21 00:00N 44°07' E 028°39'0 0.0
2018-Jul-20 23:30N 44°07' E 028°39'0 0.0
2018-Jul-20 23:00N 44°07' E 028°39'0 0.0
2018-Jul-20 22:30N 44°07' E 028°39'0 0.0
2018-Jul-20 21:58N 44°07' E 028°39'0 0.0
2018-Jul-20 21:30N 44°07' E 028°39'0 0.0
2018-Jul-20 21:00N 44°07' E 028°39'0 0.0
2018-Jul-20 20:30N 44°07' E 028°39'0 0.0
2018-Jul-20 20:00N 44°07' E 028°39'0 0.0
2018-Jul-20 19:30N 44°07' E 028°39'0 0.0
2018-Jul-20 19:00N 44°07' E 028°39'0 0.0
2018-Jul-20 18:30N 44°07' E 028°39'0 0.0
2018-Jul-20 18:00N 44°07' E 028°39'0 0.0
2018-Jul-20 17:30N 44°07' E 028°39'0 0.0
2018-Jul-20 17:00N 44°07' E 028°39'0 0.0
2018-Jul-20 16:30N 44°07' E 028°39'0 0.0
2018-Jul-20 16:00N 44°07' E 028°39'0 0.9
2018-Jul-20 15:30N 44°07' E 028°39'1 2.7
2018-Jul-20 15:00N 44°06' E 028°38'1 1.6
2018-Jul-20 14:30N 44°06' E 028°37'1 1.0
2018-Jul-20 14:00N 44°06' E 028°36'0 0.3
2018-Jul-20 13:30N 44°06' E 028°36'0 0.0
2018-Jul-20 13:00N 44°06' E 028°36'0 0.0
2018-Jul-20 12:30N 44°06' E 028°36'0 0.0
2018-Jul-20 12:00N 44°06' E 028°36'0 0.0
2018-Jul-20 11:30N 44°06' E 028°36'0 0.5
2018-Jul-20 11:00N 44°06' E 028°36'2 4.9
2018-Jul-20 10:30N 44°06' E 028°33'6 4.2
2018-Jul-20 09:08N 44°09' E 028°26'1 5.2
2018-Jul-20 08:53N 44°10' E 028°25'2 4.9
2018-Jul-20 08:29N 44°12' E 028°23'2 4.9
2018-Jul-20 08:00N 44°14' E 028°22'3 4.6
2018-Jul-20 07:21N 44°15' E 028°18'2 5.1
2018-Jul-20 07:00N 44°15' E 028°16'2 4.9
2018-Jul-20 06:30N 44°16' E 028°12'3 4.9
2018-Jul-20 05:57N 44°16' E 028°09'2 4.9
2018-Jul-20 05:30N 44°16' E 028°06'  
2018-Jul-15 11:00N 44°31' E 022°12'3 5.4
2018-Jul-15 10:30N 44°28' E 022°10'3 5.7
2018-Jul-15 10:00N 44°29' E 022°06'3 6.1
2018-Jul-15 09:30N 44°32' E 022°04'3 5.8
2018-Jul-15 09:00N 44°35' E 022°02'15 5.7
2018-Jul-15 06:23N 44°40' E 021°42'7 5.9
2018-Jul-15 05:11N 44°45' E 021°36'1 6.4
2018-Jul-15 05:00N 44°46' E 021°34'3 6.3
2018-Jul-15 04:28N 44°46' E 021°30'11 1.4
2018-Jul-14 20:30N 44°47' E 021°14'3 6.4
2018-Jul-14 20:00N 44°45' E 021°10'3 6.2
2018-Jul-14 19:30N 44°44' E 021°06'3 6.3
2018-Jul-14 19:01N 44°43' E 021°02'3 6.2
2018-Jul-14 18:30N 44°42' E 020°58'3 5.1
2018-Jul-14 18:01N 44°40' E 020°55'0 0.1
2018-Jul-14 17:31N 44°40' E 020°55'1 2.6
2018-Jul-14 17:00N 44°41' E 020°57'1 1.4
2018-Jul-14 16:30N 44°42' E 020°57'2 4.1
2018-Jul-14 16:00N 44°40' E 020°55'1 1.9
2018-Jul-14 15:24N 44°40' E 020°54'7 2.8
2018-Jul-14 12:52N 44°41' E 020°44'3 7.7
2018-Jul-14 12:30N 44°43' E 020°41'4 7.6
2018-Jul-14 12:00N 44°46' E 020°38'4 7.4
2018-Jul-14 11:30N 44°50' E 020°39'1 2.5
2018-Jul-14 11:00N 44°51' E 020°39'0 0.0
2018-Jul-14 10:30N 44°51' E 020°39'0 0.0
2018-Jul-14 10:00N 44°51' E 020°39'0 0.0
2018-Jul-14 09:30N 44°51' E 020°39'0 0.0
2018-Jul-14 09:00N 44°51' E 020°39'0 0.0
2018-Jul-14 08:30N 44°51' E 020°39'0 0.0
2018-Jul-14 08:00N 44°51' E 020°39'0 0.0
2018-Jul-14 07:30N 44°51' E 020°39'0 0.0
2018-Jul-14 07:00N 44°51' E 020°39'0 0.0
2018-Jul-14 06:30N 44°51' E 020°39'0 0.0
2018-Jul-14 06:00N 44°51' E 020°39'0 0.0
2018-Jul-14 05:30N 44°51' E 020°39'0 0.0
2018-Jul-14 05:00N 44°51' E 020°39'0 0.0
2018-Jul-14 04:30N 44°51' E 020°39'0 0.0
2018-Jul-14 04:00N 44°51' E 020°39'0 0.0
2018-Jul-14 03:30N 44°51' E 020°39'0 0.0
2018-Jul-14 03:00N 44°51' E 020°39'0 0.0
2018-Jul-14 02:30N 44°51' E 020°39'0 0.0
2018-Jul-14 02:00N 44°51' E 020°39'0 0.0
2018-Jul-14 01:30N 44°51' E 020°39'0 0.0
2018-Jul-14 01:00N 44°51' E 020°39'0 0.0
2018-Jul-14 00:30N 44°51' E 020°39'0 0.0
2018-Jul-14 00:01N 44°51' E 020°39'0 0.0
2018-Jul-13 23:31N 44°51' E 020°39'0 0.0
2018-Jul-13 23:00N 44°51' E 020°39'0 0.0
2018-Jul-13 22:30N 44°51' E 020°39'0 0.0
2018-Jul-13 22:01N 44°51' E 020°39'0 0.0
2018-Jul-13 21:31N 44°51' E 020°39'1 2.6
2018-Jul-13 21:01N 44°49' E 020°39'3 6.5
2018-Jul-13 20:30N 44°46' E 020°38'3 6.1
2018-Jul-13 20:00N 44°44' E 020°40'3 6.5
2018-Jul-13 19:30N 44°41' E 020°43'3 6.3
2018-Jul-13 19:00N 44°40' E 020°47'3 6.4
2018-Jul-13 18:31N 44°40' E 020°51'3 5.8
2018-Jul-13 18:00N 44°40' E 020°55'0 0.2
2018-Jul-13 17:30N 44°40' E 020°55'2 3.3
2018-Jul-13 17:00N 44°41' E 020°57'0 0.1
2018-Jul-13 16:30N 44°41' E 020°57'0 0.0
2018-Jul-13 16:01N 44°41' E 020°57'0 0.0
2018-Jul-13 15:31N 44°41' E 020°57'0 0.0
2018-Jul-13 15:00N 44°41' E 020°57'0 0.0
2018-Jul-13 14:30N 44°41' E 020°57'0 0.0
2018-Jul-13 13:30N 44°41' E 020°57'0 0.0
2018-Jul-13 13:01N 44°41' E 020°57'0 0.0
2018-Jul-13 12:30N 44°41' E 020°57'0 0.0
2018-Jul-13 12:00N 44°41' E 020°57'0 0.0
2018-Jul-13 11:30N 44°41' E 020°57'0 0.0
2018-Jul-13 11:00N 44°41' E 020°57'0 0.0
2018-Jul-13 10:30N 44°41' E 020°57'0 0.0
2018-Jul-13 10:00N 44°41' E 020°57'0 0.0
2018-Jul-13 09:10N 44°41' E 020°57'0 0.0
2018-Jul-13 09:00N 44°41' E 020°57'0 0.6
2018-Jul-13 08:30N 44°42' E 020°57'0 0.4
2018-Jul-13 08:01N 44°41' E 020°57'0 0.0
2018-Jul-13 07:12N 44°41' E 020°57'0 0.0
2018-Jul-13 07:00N 44°41' E 020°57'0 0.0
2018-Jul-13 06:30N 44°41' E 020°57'0 0.0
2018-Jul-13 06:00N 44°41' E 020°57'0 0.0
2018-Jul-13 05:30N 44°41' E 020°57'0 0.0
2018-Jul-13 05:01N 44°41' E 020°57'0 0.0
2018-Jul-13 04:31N 44°41' E 020°57'0 0.0
2018-Jul-13 04:01N 44°41' E 020°57'0 0.0
2018-Jul-13 03:31N 44°41' E 020°57'0 0.0
2018-Jul-13 03:00N 44°41' E 020°57'0 0.0
2018-Jul-13 02:31N 44°41' E 020°57'0 0.0
2018-Jul-13 02:01N 44°41' E 020°57'0 0.0
2018-Jul-13 01:30N 44°41' E 020°57'0 0.0
2018-Jul-13 01:01N 44°41' E 020°57'0 0.0
2018-Jul-13 00:30N 44°41' E 020°57'0 0.0
2018-Jul-13 00:00N 44°41' E 020°57'0 0.0
2018-Jul-12 23:30N 44°41' E 020°57'0 0.0
2018-Jul-12 23:01N 44°41' E 020°57'0 0.0
2018-Jul-12 22:30N 44°41' E 020°57'0 0.0
2018-Jul-12 22:01N 44°41' E 020°57'0 0.0
2018-Jul-12 21:31N 44°41' E 020°57'0 0.0
2018-Jul-12 21:01N 44°41' E 020°57'0 0.0
2018-Jul-12 20:31N 44°41' E 020°57'0 0.0
2018-Jul-12 20:01N 44°41' E 020°57'0 0.0
2018-Jul-12 19:31N 44°41' E 020°57'0 0.0
2018-Jul-12 19:01N 44°41' E 020°57'0 0.0
2018-Jul-12 18:30N 44°41' E 020°57'0 0.0
2018-Jul-12 18:00N 44°41' E 020°57'0 0.0
2018-Jul-12 17:31N 44°41' E 020°57'0 0.0
2018-Jul-12 17:01N 44°41' E 020°57'0 0.0
2018-Jul-12 16:30N 44°41' E 020°57'0 0.0
2018-Jul-12 16:01N 44°41' E 020°57'0 0.0
2018-Jul-12 15:30N 44°41' E 020°57'0 0.0
2018-Jul-12 15:00N 44°41' E 020°57'0 0.0
2018-Jul-12 14:30N 44°41' E 020°57'0 0.0
2018-Jul-12 14:00N 44°41' E 020°57'0 0.0
2018-Jul-12 13:30N 44°41' E 020°57'0 0.0
2018-Jul-12 13:00N 44°41' E 020°57'0 0.0
2018-Jul-12 12:30N 44°41' E 020°57'0 0.0
2018-Jul-12 11:37N 44°41' E 020°57'0 0.0
2018-Jul-12 11:30N 44°41' E 020°57'0 0.0
2018-Jul-12 11:00N 44°41' E 020°57'0 0.0
2018-Jul-12 10:30N 44°41' E 020°57'0 0.0
2018-Jul-11 23:55N 44°41' E 020°57'0 0.0
2018-Jul-11 23:12N 44°41' E 020°57'0 0.0
2018-Jul-11 23:00N 44°41' E 020°57'  

Dump ship's entire track history